createdAt,value
2024-01-19T00:01:27.991Z,51.60
2024-01-19T00:04:16.509Z,65.00
2024-01-19T00:07:05.454Z,60.60
2024-01-19T00:09:54.753Z,58.80
2024-01-19T00:12:43.286Z,61.40
2024-01-19T00:15:37.337Z,57.70
2024-01-19T00:18:30.692Z,48.50
2024-01-19T00:21:19.303Z,62.80
2024-01-19T00:24:07.857Z,69.00
2024-01-19T00:26:56.692Z,70.70
2024-01-19T00:29:45.318Z,67.70
2024-01-19T00:32:33.916Z,65.00
2024-01-19T00:35:22.614Z,62.00
2024-01-19T00:38:11.347Z,57.20
2024-01-19T00:40:59.848Z,60.00
2024-01-19T00:43:48.415Z,59.00
2024-01-19T00:46:36.932Z,71.90
2024-01-19T00:49:25.915Z,57.20
2024-01-19T00:52:14.536Z,56.80
2024-01-19T00:55:03.170Z,55.60
2024-01-19T00:57:51.665Z,58.20
2024-01-19T01:00:40.722Z,59.80
2024-01-19T01:03:29.929Z,60.30
2024-01-19T01:06:18.921Z,64.70
2024-01-19T01:09:08.498Z,52.00
2024-01-19T01:11:57.625Z,62.00
2024-01-19T01:14:48.270Z,63.10
2024-01-19T01:17:36.996Z,63.70
2024-01-19T01:20:25.555Z,57.90
2024-01-19T01:23:14.293Z,60.50
2024-01-19T01:26:02.944Z,54.50
2024-01-19T01:28:51.672Z,66.60
2024-01-19T01:31:40.299Z,72.00
2024-01-19T01:34:28.855Z,60.50
2024-01-19T01:37:17.458Z,56.60
2024-01-19T01:40:07.211Z,53.50
2024-01-19T01:43:01.854Z,51.10
2024-01-19T01:45:51.246Z,57.10
2024-01-19T01:48:40.023Z,45.60
2024-01-19T01:51:28.910Z,49.10
2024-01-19T01:54:17.472Z,43.90
2024-01-19T01:57:07.064Z,55.90
2024-01-19T01:59:56.368Z,64.70
2024-01-19T02:03:13.927Z,62.60
2024-01-19T02:06:12.687Z,41.80
2024-01-19T02:09:01.681Z,58.10
2024-01-19T02:11:50.748Z,55.30
2024-01-19T02:14:39.698Z,54.30
2024-01-19T02:17:29.115Z,57.50
2024-01-19T02:20:18.946Z,60.60
2024-01-19T02:23:14.030Z,58.80
2024-01-19T02:26:05.792Z,57.90
2024-01-19T02:28:54.627Z,54.60
2024-01-19T02:31:43.408Z,57.30
2024-01-19T02:34:32.343Z,59.20
2024-01-19T02:37:21.800Z,65.80
2024-01-19T02:40:11.026Z,51.60
2024-01-19T02:42:59.833Z,46.90
2024-01-19T02:45:48.608Z,48.90
2024-01-19T02:48:37.440Z,44.50
2024-01-19T02:51:26.248Z,45.70
2024-01-19T02:54:15.002Z,48.70
2024-01-19T02:57:04.382Z,38.20
2024-01-19T02:59:53.158Z,31.10
2024-01-19T03:02:41.997Z,31.30
2024-01-19T03:05:30.971Z,33.40
2024-01-19T03:08:22.912Z,40.10
2024-01-19T03:11:11.767Z,27.60
2024-01-19T03:14:00.485Z,27.70
2024-01-19T03:16:49.355Z,19.80
2024-01-19T03:19:38.256Z,17.50
2024-01-19T03:22:28.978Z,17.20
2024-01-19T03:25:17.762Z,15.90
2024-01-19T03:28:06.532Z,12.40
2024-01-19T03:30:55.291Z,12.90
2024-01-19T03:33:44.058Z,12.30
2024-01-19T03:36:32.946Z,12.10
2024-01-19T03:39:23.256Z,13.10
2024-01-19T03:42:12.036Z,16.90
2024-01-19T03:45:01.451Z,13.10
2024-01-19T03:47:50.128Z,15.10
2024-01-19T03:50:39.084Z,15.40
2024-01-19T03:53:27.724Z,14.80
2024-01-19T03:56:16.358Z,17.30
2024-01-19T03:59:04.910Z,11.80
2024-01-19T04:01:53.650Z,13.30
2024-01-19T04:04:42.342Z,12.90
2024-01-19T04:07:30.981Z,10.70
2024-01-19T04:10:19.486Z,11.40
2024-01-19T04:13:08.145Z,9.30
2024-01-19T04:15:56.922Z,12.70
2024-01-19T04:18:45.766Z,10.50
2024-01-19T04:21:34.956Z,15.50
2024-01-19T04:24:23.429Z,13.40
2024-01-19T04:27:11.957Z,13.60
2024-01-19T04:30:00.673Z,13.50
2024-01-19T04:32:49.536Z,13.80
2024-01-19T04:35:38.108Z,10.70
2024-01-19T04:38:26.642Z,14.80
2024-01-19T04:41:15.176Z,17.20
2024-01-19T04:44:04.156Z,20.70
2024-01-19T04:46:53.017Z,18.70
2024-01-19T04:49:41.580Z,14.50
2024-01-19T04:52:30.074Z,15.80
2024-01-19T04:55:19.656Z,15.10
2024-01-19T04:58:08.170Z,15.90
2024-01-19T05:00:56.673Z,17.90
2024-01-19T05:03:45.419Z,21.50
2024-01-19T05:06:34.078Z,22.40
2024-01-19T05:09:22.670Z,23.60
2024-01-19T05:12:11.328Z,27.70
2024-01-19T05:15:00.103Z,25.90
2024-01-19T05:17:48.752Z,25.70
2024-01-19T05:20:39.464Z,30.50
2024-01-19T05:23:28.796Z,31.00
2024-01-19T05:26:17.376Z,31.60
2024-01-19T05:29:05.983Z,28.00
2024-01-19T05:31:54.573Z,27.70
2024-01-19T05:34:45.038Z,20.30
2024-01-19T05:37:33.589Z,26.80
2024-01-19T05:40:22.079Z,27.20
2024-01-19T05:43:10.555Z,25.60
2024-01-19T05:45:59.191Z,31.30
2024-01-19T05:48:47.799Z,25.80
2024-01-19T05:51:36.899Z,21.60
2024-01-19T05:54:25.456Z,20.40
2024-01-19T05:57:14.092Z,26.40
2024-01-19T06:00:02.710Z,22.30
2024-01-19T06:03:00.260Z,23.60
2024-01-19T06:05:48.954Z,23.40
2024-01-19T06:08:37.601Z,28.20
2024-01-19T06:11:26.231Z,33.30
2024-01-19T06:14:14.735Z,34.40
2024-01-19T06:17:04.778Z,34.60
2024-01-19T06:19:53.301Z,30.40
2024-01-19T06:22:41.972Z,31.70
2024-01-19T06:25:30.530Z,32.60
2024-01-19T06:28:19.265Z,29.50
2024-01-19T06:31:08.931Z,34.20
2024-01-19T06:33:58.499Z,33.20
2024-01-19T06:36:47.253Z,34.70
2024-01-19T06:39:36.378Z,29.30
2024-01-19T06:42:25.538Z,30.90
2024-01-19T06:45:17.761Z,31.80
2024-01-19T06:48:06.676Z,30.60
2024-01-19T06:50:55.241Z,41.00
2024-01-19T06:53:44.122Z,32.90
2024-01-19T06:56:32.675Z,35.20
2024-01-19T06:59:21.244Z,35.20
2024-01-19T07:02:09.762Z,35.60
2024-01-19T07:04:59.050Z,30.50
2024-01-19T07:07:47.569Z,40.50
2024-01-19T07:10:36.114Z,36.40
2024-01-19T07:13:24.674Z,34.70
2024-01-19T07:16:13.275Z,32.30
2024-01-19T07:19:01.906Z,37.40
2024-01-19T07:21:50.747Z,37.50
2024-01-19T07:24:39.581Z,39.10
2024-01-19T07:27:28.254Z,34.60
2024-01-19T07:30:16.950Z,35.00
2024-01-19T07:33:09.204Z,42.00
2024-01-19T07:36:01.610Z,47.90
2024-01-19T07:38:50.400Z,47.60
2024-01-19T07:41:39.045Z,36.40
2024-01-19T07:44:27.572Z,35.90
2024-01-19T07:47:16.104Z,35.70
2024-01-19T07:50:06.224Z,35.30
2024-01-19T07:52:55.127Z,36.80
2024-01-19T07:55:43.648Z,33.00
2024-01-19T07:58:32.155Z,34.30
2024-01-19T08:01:20.776Z,32.70
2024-01-19T08:04:09.323Z,29.30
2024-01-19T08:06:57.953Z,34.40
2024-01-19T08:09:46.693Z,31.10
2024-01-19T08:12:35.216Z,30.30
2024-01-19T08:15:24.149Z,36.30
2024-01-19T08:18:12.921Z,38.10
2024-01-19T08:21:04.794Z,34.90
2024-01-19T08:23:53.389Z,33.60
2024-01-19T08:26:42.014Z,26.10
2024-01-19T08:29:30.647Z,33.50
2024-01-19T08:32:19.243Z,30.30
2024-01-19T08:35:11.138Z,25.50
2024-01-19T08:38:01.243Z,24.80
2024-01-19T08:40:50.134Z,27.80
2024-01-19T08:43:42.066Z,25.40
2024-01-19T08:46:30.657Z,26.10
2024-01-19T08:49:19.198Z,19.90
2024-01-19T08:52:07.894Z,27.20
2024-01-19T08:54:56.460Z,27.90
2024-01-19T08:57:45.001Z,24.50
2024-01-19T09:00:33.726Z,25.50
2024-01-19T09:03:24.194Z,24.40
2024-01-19T09:06:15.514Z,22.20
2024-01-19T09:09:05.020Z,23.20
2024-01-19T09:11:54.144Z,22.30
2024-01-19T09:14:42.721Z,23.90
2024-01-19T09:17:31.413Z,27.60
2024-01-19T09:20:20.064Z,23.80
2024-01-19T09:23:08.566Z,31.90
2024-01-19T09:25:57.121Z,29.50
2024-01-19T09:28:45.939Z,27.50
2024-01-19T09:31:34.724Z,22.10
2024-01-19T09:34:24.138Z,23.50
2024-01-19T09:37:13.533Z,23.00
2024-01-19T09:40:02.044Z,25.10
2024-01-19T09:42:55.876Z,21.80
2024-01-19T09:45:49.379Z,20.20
2024-01-19T09:48:47.680Z,20.40
2024-01-19T09:51:46.986Z,19.80
2024-01-19T09:54:36.127Z,20.30
2024-01-19T09:57:24.726Z,17.40
2024-01-19T10:00:18.736Z,20.60
2024-01-19T10:03:10.289Z,21.30
2024-01-19T10:05:59.292Z,23.00
2024-01-19T10:08:47.973Z,21.90
2024-01-19T10:11:36.742Z,21.90
2024-01-19T10:14:27.391Z,25.70
2024-01-19T10:17:17.487Z,23.60
2024-01-19T10:20:07.520Z,25.50
2024-01-19T10:22:56.156Z,19.50
2024-01-19T10:25:44.741Z,24.90
2024-01-19T10:28:36.429Z,23.30
2024-01-19T10:31:27.405Z,22.90
2024-01-19T10:34:18.652Z,19.00
2024-01-19T10:37:07.523Z,23.20
2024-01-19T10:39:56.017Z,20.70
2024-01-19T10:42:47.082Z,18.60
2024-01-19T10:45:38.963Z,19.50
2024-01-19T10:48:28.197Z,17.10
2024-01-19T10:51:20.681Z,18.10
2024-01-19T10:54:11.610Z,23.20
2024-01-19T10:57:14.262Z,24.90
2024-01-19T11:00:43.151Z,18.90
2024-01-19T11:03:31.995Z,18.40
2024-01-19T11:06:21.310Z,17.80
2024-01-19T11:09:09.983Z,18.10
2024-01-19T11:12:02.367Z,19.30
2024-01-19T11:14:54.639Z,18.80
2024-01-19T11:17:43.485Z,19.20
2024-01-19T11:20:33.504Z,17.20
2024-01-19T11:23:22.329Z,18.10
2024-01-19T11:26:39.105Z,25.10
2024-01-19T11:29:33.191Z,16.70
2024-01-19T11:32:21.920Z,15.10
2024-01-19T11:35:14.567Z,17.30
2024-01-19T11:38:03.101Z,16.00
2024-01-19T11:40:51.765Z,14.40
2024-01-19T11:43:42.210Z,14.40
2024-01-19T11:46:47.283Z,14.30
2024-01-19T11:49:39.938Z,14.00
2024-01-19T11:52:33.507Z,13.40
2024-01-19T11:55:27.859Z,13.80
2024-01-19T11:58:29.939Z,17.50
2024-01-19T12:01:18.823Z,13.10
2024-01-19T12:04:07.630Z,16.20
2024-01-19T12:07:05.427Z,18.90
2024-01-19T12:10:14.293Z,16.50
2024-01-19T12:13:03.618Z,13.90
2024-01-19T12:15:54.209Z,15.80
2024-01-19T12:18:43.044Z,9.90
2024-01-19T12:21:32.300Z,16.20
2024-01-19T12:24:21.564Z,17.60
2024-01-19T12:27:10.110Z,15.10
2024-01-19T12:29:58.598Z,16.20
2024-01-19T12:32:48.533Z,14.70
2024-01-19T12:35:37.061Z,16.00
2024-01-19T12:38:25.896Z,13.00
2024-01-19T12:41:17.489Z,16.20
2024-01-19T12:44:06.181Z,15.50
2024-01-19T12:46:59.430Z,15.10
2024-01-19T12:49:53.723Z,16.50
2024-01-19T12:52:49.771Z,16.90
2024-01-19T12:55:38.364Z,19.20
2024-01-19T12:58:27.004Z,21.80
2024-01-19T13:01:17.610Z,18.70
2024-01-19T13:04:06.184Z,16.70
2024-01-19T13:06:54.809Z,17.20
2024-01-19T13:09:43.456Z,17.60
2024-01-19T13:12:35.124Z,15.70
2024-01-19T13:15:24.044Z,15.80
2024-01-19T13:18:19.650Z,16.10
2024-01-19T13:21:15.742Z,14.70
2024-01-19T13:24:04.441Z,17.00
2024-01-19T13:27:00.701Z,16.00
2024-01-19T13:29:49.338Z,13.50
2024-01-19T13:32:37.924Z,15.50
2024-01-19T13:35:26.541Z,16.00
2024-01-19T13:38:15.165Z,14.70
2024-01-19T13:41:05.440Z,16.50
2024-01-19T13:43:57.069Z,14.10
2024-01-19T13:46:47.203Z,17.30
2024-01-19T13:49:35.765Z,15.20
2024-01-19T13:52:24.809Z,14.00
2024-01-19T13:55:15.288Z,14.20
2024-01-19T13:58:04.012Z,12.80
2024-01-19T14:00:52.833Z,17.70
2024-01-19T14:03:41.594Z,17.50
2024-01-19T14:06:30.259Z,11.10
2024-01-19T14:09:19.056Z,13.80
2024-01-19T14:12:08.109Z,16.60
2024-01-19T14:14:57.120Z,11.40
2024-01-19T14:17:46.367Z,11.20
2024-01-19T14:20:34.918Z,16.60
2024-01-19T14:23:23.622Z,16.00
2024-01-19T14:26:12.502Z,14.60
2024-01-19T14:29:01.531Z,14.30
2024-01-19T14:31:50.133Z,14.20
2024-01-19T14:34:43.113Z,13.90
2024-01-19T14:37:35.664Z,11.70
2024-01-19T14:40:24.455Z,15.60
2024-01-19T14:43:13.022Z,17.40
2024-01-19T14:46:03.178Z,17.50
2024-01-19T14:48:52.109Z,15.90
2024-01-19T14:51:42.221Z,14.60
2024-01-19T14:54:32.099Z,14.00
2024-01-19T14:57:22.043Z,15.30
2024-01-19T15:00:10.980Z,16.20
2024-01-19T15:02:59.718Z,15.30
2024-01-19T15:05:48.367Z,17.30
2024-01-19T15:08:36.860Z,22.10
2024-01-19T15:11:25.698Z,16.60
2024-01-19T15:14:14.482Z,12.60
2024-01-19T15:17:04.027Z,15.00
2024-01-19T15:19:54.721Z,21.70
2024-01-19T15:22:43.373Z,13.40
2024-01-19T15:25:31.960Z,20.20
2024-01-19T15:28:20.587Z,20.00
2024-01-19T15:31:09.335Z,17.70
2024-01-19T15:33:58.045Z,21.00
2024-01-19T15:36:46.716Z,16.40
2024-01-19T15:39:35.280Z,16.70
2024-01-19T15:42:24.922Z,15.30
2024-01-19T15:45:15.004Z,17.00
2024-01-19T15:48:03.815Z,18.00
2024-01-19T15:50:52.545Z,16.40
2024-01-19T15:53:42.974Z,22.80
2024-01-19T15:56:37.274Z,17.30
2024-01-19T15:59:27.066Z,19.50
2024-01-19T16:02:15.672Z,16.10
2024-01-19T16:05:04.840Z,18.90
2024-01-19T16:07:53.536Z,18.50
2024-01-19T16:10:42.217Z,20.30
2024-01-19T16:13:32.023Z,22.70
2024-01-19T16:16:20.647Z,16.20
2024-01-19T16:19:09.193Z,24.10
2024-01-19T16:22:01.461Z,18.00
2024-01-19T16:24:50.031Z,20.70
2024-01-19T16:27:38.664Z,20.70
2024-01-19T16:30:27.249Z,21.00
2024-01-19T16:33:15.871Z,19.50
2024-01-19T16:36:07.616Z,17.80
2024-01-19T16:38:56.814Z,14.40
2024-01-19T16:41:48.072Z,15.50
2024-01-19T16:44:36.721Z,15.70
2024-01-19T16:47:25.226Z,16.80
2024-01-19T16:50:13.879Z,20.00
2024-01-19T16:53:02.638Z,22.20
2024-01-19T16:55:51.199Z,16.30
2024-01-19T16:58:39.805Z,15.10
2024-01-19T17:01:28.976Z,18.20
2024-01-19T17:04:17.585Z,15.60
2024-01-19T17:07:06.137Z,21.00
2024-01-19T17:09:54.699Z,24.10
2024-01-19T17:12:44.541Z,20.00
2024-01-19T17:15:33.059Z,21.30
2024-01-19T17:18:21.776Z,19.20
2024-01-19T17:21:10.413Z,21.20
2024-01-19T17:24:00.634Z,22.20
2024-01-19T17:26:50.962Z,23.90
2024-01-19T17:29:40.544Z,16.70
2024-01-19T17:32:32.774Z,15.30
2024-01-19T17:35:23.522Z,20.40
2024-01-19T17:38:12.268Z,20.50
2024-01-19T17:41:00.819Z,24.00
2024-01-19T17:43:50.299Z,17.60
2024-01-19T17:46:38.898Z,15.00
2024-01-19T17:49:29.486Z,18.00
2024-01-19T17:52:18.052Z,18.80
2024-01-19T17:55:08.897Z,23.80
2024-01-19T17:57:58.834Z,21.20
2024-01-19T18:00:48.586Z,20.60
2024-01-19T18:03:37.449Z,22.50
2024-01-19T18:06:26.243Z,17.30
2024-01-19T18:09:16.321Z,18.20
2024-01-19T18:12:05.831Z,15.10
2024-01-19T18:14:54.543Z,18.20
2024-01-19T18:17:43.284Z,13.70
2024-01-19T18:20:32.595Z,17.60
2024-01-19T18:23:21.311Z,16.50
2024-01-19T18:26:10.491Z,17.90
2024-01-19T18:28:59.464Z,13.10
2024-01-19T18:31:48.221Z,11.50
2024-01-19T18:34:38.597Z,12.50
2024-01-19T18:37:27.330Z,12.10
2024-01-19T18:40:15.988Z,14.00
2024-01-19T18:43:04.908Z,19.40
2024-01-19T18:45:53.455Z,14.40
2024-01-19T18:48:42.251Z,15.80
2024-01-19T18:51:31.402Z,13.20
2024-01-19T18:54:20.172Z,11.60
2024-01-19T18:57:09.163Z,11.70
2024-01-19T18:59:58.177Z,11.70
2024-01-19T19:02:47.113Z,11.70
2024-01-19T19:05:36.995Z,13.50
2024-01-19T19:08:27.811Z,13.80
2024-01-19T19:11:17.653Z,14.80
2024-01-19T19:14:06.314Z,14.00
2024-01-19T19:16:55.469Z,10.90
2024-01-19T19:19:44.022Z,14.60
2024-01-19T19:22:32.666Z,16.50
2024-01-19T19:25:21.260Z,14.90
2024-01-19T19:28:10.011Z,16.70
2024-01-19T19:30:58.525Z,21.00
2024-01-19T19:33:48.219Z,15.50
2024-01-19T19:36:37.283Z,16.30
2024-01-19T19:39:25.867Z,19.40
2024-01-19T19:42:16.222Z,17.90
2024-01-19T19:45:05.658Z,18.70
2024-01-19T19:47:54.271Z,21.00
2024-01-19T19:50:42.922Z,16.00
2024-01-19T19:53:31.656Z,15.90
2024-01-19T19:56:20.310Z,17.70
2024-01-19T19:59:08.933Z,18.40
2024-01-19T20:01:57.479Z,19.00
2024-01-19T20:04:46.946Z,16.40
2024-01-19T20:07:35.552Z,14.40
2024-01-19T20:10:24.686Z,12.50
2024-01-19T20:13:13.500Z,14.20
2024-01-19T20:16:02.168Z,15.30
2024-01-19T20:18:52.685Z,16.20
2024-01-19T20:21:41.241Z,19.70
2024-01-19T20:24:29.844Z,21.60
2024-01-19T20:27:18.369Z,18.50
2024-01-19T20:30:08.382Z,18.80
2024-01-19T20:32:57.560Z,15.90
2024-01-19T20:35:46.304Z,16.10
2024-01-19T20:38:35.942Z,15.80
2024-01-19T20:41:24.765Z,18.60
2024-01-19T20:44:13.436Z,21.30
2024-01-19T20:47:02.370Z,16.30
2024-01-19T20:49:51.130Z,18.50
2024-01-19T20:52:39.922Z,16.50
2024-01-19T20:55:28.466Z,17.30
2024-01-19T20:58:17.021Z,13.70
2024-01-19T21:01:06.143Z,13.20
2024-01-19T21:03:54.694Z,20.90
2024-01-19T21:06:43.675Z,17.80
2024-01-19T21:09:32.977Z,19.30
2024-01-19T21:12:23.858Z,16.10
2024-01-19T21:15:14.985Z,11.70
2024-01-19T21:18:04.129Z,12.70
2024-01-19T21:20:52.793Z,14.40
2024-01-19T21:23:42.375Z,13.30
2024-01-19T21:26:32.326Z,15.80
2024-01-19T21:29:20.879Z,19.30
2024-01-19T21:32:10.733Z,17.80
2024-01-19T21:34:59.698Z,14.70
2024-01-19T21:37:49.093Z,13.60
2024-01-19T21:40:38.428Z,14.20
2024-01-19T21:43:27.097Z,11.00
2024-01-19T21:46:16.412Z,19.20
2024-01-19T21:49:07.124Z,15.00
2024-01-19T21:51:55.694Z,14.90
2024-01-19T21:54:45.033Z,14.50
2024-01-19T21:57:33.939Z,15.20
2024-01-19T22:00:22.715Z,13.20
2024-01-19T22:03:11.805Z,16.90
2024-01-19T22:06:00.690Z,15.00
2024-01-19T22:08:49.585Z,11.70
2024-01-19T22:11:46.784Z,16.50
2024-01-19T22:14:40.040Z,15.00
2024-01-19T22:17:28.775Z,13.50
2024-01-19T22:20:17.549Z,13.80
2024-01-19T22:23:06.207Z,14.40
2024-01-19T22:25:54.762Z,13.70
2024-01-19T22:28:43.293Z,14.10
2024-01-19T22:31:32.868Z,12.10
2024-01-19T22:34:23.387Z,17.30
2024-01-19T22:37:14.949Z,16.50
2024-01-19T22:40:03.819Z,15.60
2024-01-19T22:42:52.351Z,15.10
2024-01-19T22:45:41.436Z,16.10
2024-01-19T22:48:30.406Z,20.30
2024-01-19T22:51:19.630Z,21.10
2024-01-19T22:54:09.000Z,18.90
2024-01-19T22:56:57.530Z,16.80
2024-01-19T22:59:46.221Z,17.00
2024-01-19T23:02:35.472Z,20.40
2024-01-19T23:05:24.215Z,17.30
2024-01-19T23:08:13.020Z,16.70
2024-01-19T23:11:01.667Z,13.90
2024-01-19T23:13:50.418Z,15.40
2024-01-19T23:16:40.390Z,16.80
2024-01-19T23:19:31.767Z,18.00
2024-01-19T23:22:20.881Z,15.70
2024-01-19T23:25:16.589Z,15.90
2024-01-19T23:28:11.371Z,17.30
2024-01-19T23:30:59.965Z,19.20
2024-01-19T23:33:48.575Z,22.70
2024-01-19T23:36:37.842Z,18.70
2024-01-19T23:39:27.624Z,20.20
2024-01-19T23:42:17.903Z,18.50
2024-01-19T23:45:07.446Z,19.10
2024-01-19T23:47:57.683Z,16.90
2024-01-19T23:50:46.270Z,17.70
2024-01-19T23:53:34.881Z,16.30
2024-01-19T23:56:23.464Z,16.60
2024-01-19T23:59:12.188Z,17.80
